Time;durP1;ratioP1;P1;durP2;ratioP2;P2;SDS_P1;SDS_P2;PMS_P1;PMS_P2;Temp;Humidity;BMP_temperature;BMP_pressure;BME280_temperature;BME280_humidity;BME280_pressure;Samples;Min_cycle;Max_cycle;Signal;HPM_P1;HPM_P2
2023/09/11 00:48:39;;;;;;;35.93;18.30;;;16.10;99.90;;;;;;1936566;72;27097;-90
2023/09/11 00:54:18;;;;;;;46.00;20.27;;;16.00;99.90;;;;;;1968580;71;26357;-90
2023/09/11 01:13:03;;;;;;;44.10;19.90;;;15.90;99.90;;;;;;1941591;72;25201;-91
2023/09/11 01:23:50;;;;;;;44.23;20.90;;;16.00;99.90;;;;;;1949912;72;25227;-90
2023/09/11 01:31:24;;;;;;;44.17;20.57;;;16.00;99.90;;;;;;1948004;72;25753;-90
2023/09/11 02:04:45;;;;;;;84.23;23.07;;;16.00;99.90;;;;;;1929590;73;26492;-90
2023/09/11 02:26:13;;;;;;;69.57;21.10;;;16.10;99.90;;;;;;1920842;73;25208;-90
2023/09/11 02:29:47;;;;;;;72.73;19.93;;;16.00;99.90;;;;;;1924689;73;25285;-90
2023/09/11 02:35:33;;;;;;;51.40;18.57;;;16.10;99.90;;;;;;1954037;72;27146;-90
2023/09/11 02:41:58;;;;;;;62.53;19.37;;;16.10;99.90;;;;;;1938649;72;28875;-91
2023/09/11 02:55:08;;;;;;;59.00;19.70;;;16.10;99.90;;;;;;1992859;71;27660;-91
2023/09/11 02:58:05;;;;;;;61.53;20.13;;;16.20;99.90;;;;;;1943411;72;25176;-91
2023/09/11 03:21:55;;;;;;;48.83;17.60;;;16.30;99.90;;;;;;1988148;71;28234;-90
2023/09/11 03:24:55;;;;;;;50.63;17.10;;;16.20;99.90;;;;;;1936780;72;25185;-90
2023/09/11 03:27:45;;;;;;;55.47;17.83;;;16.20;99.90;;;;;;2037474;69;25210;-90
2023/09/11 03:33:33;;;;;;;44.97;16.93;;;16.20;99.90;;;;;;1941281;72;26977;-89
2023/09/11 03:36:22;;;;;;;46.77;16.90;;;16.20;99.90;;;;;;1929070;73;25315;-92
2023/09/11 03:57:55;;;;;;;64.37;20.13;;;16.30;99.90;;;;;;1863535;75;25923;-90
2023/09/11 04:08:21;;;;;;;65.63;19.10;;;16.30;99.90;;;;;;1930772;73;25205;-90
2023/09/11 04:15:44;;;;;;;69.63;19.60;;;16.30;99.90;;;;;;1917627;73;25744;-90
2023/09/11 04:26:39;;;;;;;61.40;20.40;;;16.40;99.90;;;;;;1937070;73;25214;-91
2023/09/11 04:30:22;;;;;;;60.97;19.97;;;16.40;99.90;;;;;;1919915;73;25813;-91
2023/09/11 05:05:16;;;;;;;85.10;22.77;;;16.50;99.90;;;;;;1971667;71;25213;-90
2023/09/11 05:12:38;;;;;;;97.23;23.63;;;16.50;99.90;;;;;;2034524;69;25641;-90
2023/09/11 05:18:41;;;;;;;70.60;22.57;;;16.40;99.90;;;;;;1951543;72;26927;-90
2023/09/11 05:21:52;;;;;;;82.17;23.17;;;16.40;99.90;;;;;;1929262;73;25700;-90
2023/09/11 05:32:25;;;;;;;99.33;27.27;;;16.40;99.90;;;;;;1990927;71;27648;-89
2023/09/11 05:36:09;;;;;;;114.20;27.63;;;16.40;99.90;;;;;;1963414;71;25209;-92
2023/09/11 05:47:10;;;;;;;120.63;26.40;;;16.40;99.90;;;;;;1921277;72;25723;-91
2023/09/11 06:00:33;;;;;;;145.27;32.53;;;16.60;99.90;;;;;;1995618;72;25710;-90
2023/09/11 06:04:00;;;;;;;162.53;33.33;;;16.60;99.90;;;;;;1988353;70;25703;-90
2023/09/11 06:06:52;;;;;;;126.97;31.13;;;16.60;99.90;;;;;;1982538;71;25213;-90
2023/09/11 06:10:24;;;;;;;133.83;31.83;;;16.70;99.90;;;;;;1993668;70;25273;-90
2023/09/11 06:13:53;;;;;;;119.00;30.47;;;16.70;99.90;;;;;;1993935;71;25241;-91
2023/09/11 06:17:11;;;;;;;143.83;34.70;;;16.70;99.90;;;;;;1992610;72;25515;-91
2023/09/11 06:20:08;;;;;;;109.50;29.10;;;16.80;99.90;;;;;;1994626;71;25251;-91
2023/09/11 06:23:05;;;;;;;134.13;33.67;;;16.80;99.90;;;;;;1992179;71;25229;-91
2023/09/11 06:25:56;;;;;;;128.63;33.33;;;16.80;99.90;;;;;;1991122;72;25280;-91
2023/09/11 06:28:51;;;;;;;125.63;33.70;;;16.80;99.90;;;;;;1996283;72;25803;-91
2023/09/11 06:34:31;;;;;;;133.87;35.10;;;16.90;99.90;;;;;;2018368;69;26958;-90
2023/09/11 06:37:22;;;;;;;124.30;34.57;;;16.90;99.90;;;;;;1949392;72;25714;-90
2023/09/11 06:40:12;;;;;;;137.33;36.37;;;16.90;99.90;;;;;;1963486;72;25661;-91
2023/09/11 06:43:02;;;;;;;136.97;33.33;;;17.00;99.90;;;;;;1950180;72;25254;-90
2023/09/11 06:45:54;;;;;;;143.33;35.13;;;17.00;99.90;;;;;;1936473;73;25209;-90
2023/09/11 06:51:37;;;;;;;107.73;33.93;;;17.00;99.90;;;;;;1985666;71;26996;-90
2023/09/11 06:54:26;;;;;;;117.17;32.80;;;17.00;99.90;;;;;;1932277;73;25174;-90
2023/09/11 07:10:51;;;;;;;128.10;34.50;;;17.00;99.90;;;;;;1995267;69;26752;-89
2023/09/11 07:13:54;;;;;;;118.67;34.53;;;17.10;99.90;;;;;;1963314;72;25156;-90
2023/09/11 07:17:14;;;;;;;117.27;31.63;;;17.10;99.90;;;;;;1990649;72;25143;-90
2023/09/11 07:20:20;;;;;;;107.23;30.37;;;17.20;99.90;;;;;;1939960;73;25180;-90
2023/09/11 07:23:24;;;;;;;98.67;29.50;;;17.20;99.90;;;;;;1987375;70;25128;-91
2023/09/11 07:26:14;;;;;;;108.27;30.97;;;17.20;99.90;;;;;;1969344;72;25196;-90
2023/09/11 07:29:13;;;;;;;104.20;30.33;;;17.30;99.90;;;;;;1945298;72;25664;-90
2023/09/11 07:32:08;;;;;;;120.07;30.37;;;17.30;99.90;;;;;;1970966;71;25210;-90
2023/09/11 07:34:59;;;;;;;102.63;30.97;;;17.20;99.90;;;;;;1964958;72;25287;-90
2023/09/11 07:41:18;;;;;;;99.20;30.50;;;17.20;99.90;;;;;;1939512;71;25762;-90
2023/09/11 07:44:29;;;;;;;91.87;28.77;;;17.20;99.90;;;;;;1996781;71;25206;-90
2023/09/11 07:47:42;;;;;;;94.33;28.73;;;17.20;99.90;;;;;;1952133;71;25279;-90
2023/09/11 07:50:40;;;;;;;90.87;28.03;;;17.10;99.90;;;;;;1961907;71;25230;-90
2023/09/11 07:53:43;;;;;;;75.80;25.67;;;17.20;99.90;;;;;;1973819;71;25229;-90
2023/09/11 07:59:36;;;;;;;72.20;26.23;;;17.20;99.90;;;;;;1944032;71;27119;-89
2023/09/11 08:02:27;;;;;;;82.70;27.77;;;17.20;99.90;;;;;;1896856;75;25267;-91
2023/09/11 08:05:17;;;;;;;77.03;27.53;;;17.30;99.90;;;;;;1903310;75;25319;-90
2023/09/11 08:08:07;;;;;;;83.03;28.10;;;17.40;99.90;;;;;;1875375;76;25249;-91
2023/09/11 08:10:56;;;;;;;77.27;26.83;;;17.40;99.90;;;;;;1864399;76;26043;-90
2023/09/11 08:13:46;;;;;;;76.27;26.10;;;17.50;99.90;;;;;;1841230;77;25274;-91
2023/09/11 08:16:35;;;;;;;70.53;25.73;;;17.40;99.90;;;;;;1814059;78;25281;-91
2023/09/11 08:19:24;;;;;;;69.93;25.53;;;17.40;99.90;;;;;;1851705;77;25737;-91
2023/09/11 08:22:13;;;;;;;68.63;25.90;;;17.40;99.90;;;;;;1835540;76;25301;-91
2023/09/11 08:25:02;;;;;;;69.97;25.37;;;17.40;99.90;;;;;;1854233;77;25304;-91
2023/09/11 08:27:52;;;;;;;76.07;25.23;;;17.30;99.90;;;;;;1862892;76;25317;-91
2023/09/11 08:30:41;;;;;;;64.93;24.73;;;17.30;99.90;;;;;;1839092;78;25769;-91
2023/09/11 08:36:12;;;;;;;45.17;19.73;;;17.40;99.90;;;;;;1967445;71;26984;-91
2023/09/11 08:39:03;;;;;;;51.70;21.47;;;17.40;99.90;;;;;;1907804;73;25300;-91
2023/09/11 08:41:53;;;;;;;47.97;21.83;;;17.40;99.90;;;;;;1916818;73;25292;-91
2023/09/11 08:44:41;;;;;;;49.93;20.80;;;17.40;99.90;;;;;;1928420;73;25268;-91
2023/09/11 08:50:23;;;;;;;45.27;19.43;;;17.50;99.90;;;;;;1925924;72;27047;-90
2023/09/11 08:53:14;;;;;;;44.47;19.40;;;17.50;99.90;;;;;;1912021;75;25236;-90
2023/09/11 08:56:04;;;;;;;43.47;19.20;;;17.50;99.90;;;;;;1899931;75;25149;-91
2023/09/11 08:58:54;;;;;;;46.80;20.20;;;17.50;99.90;;;;;;1912978;74;25678;-91
2023/09/11 09:01:43;;;;;;;47.37;19.80;;;17.60;99.90;;;;;;1890306;75;25238;-91
2023/09/11 09:04:34;;;;;;;49.43;21.23;;;17.70;99.90;;;;;;1892506;74;25636;-91
2023/09/11 09:07:26;;;;;;;42.53;18.83;;;17.60;99.90;;;;;;1912767;75;25710;-91
2023/09/11 09:16:51;;;;;;;41.40;16.63;;;17.80;99.90;;;;;;1946562;72;25233;-90
2023/09/11 09:19:42;;;;;;;37.00;18.07;;;17.80;99.90;;;;;;2035991;69;25202;-91
2023/09/11 09:22:31;;;;;;;38.30;18.20;;;17.80;99.90;;;;;;2008652;69;25704;-91
2023/09/11 09:29:12;;;;;;;40.37;16.90;;;17.90;99.90;;;;;;1964380;71;26926;-91
2023/09/11 09:32:03;;;;;;;52.37;20.87;;;17.90;99.90;;;;;;1912300;74;25268;-90
2023/09/11 09:34:58;;;;;;;56.30;21.07;;;17.90;99.90;;;;;;1913152;74;25252;-90
2023/09/11 09:37:57;;;;;;;45.50;20.53;;;17.90;99.90;;;;;;1896038;73;25184;-90
2023/09/11 09:40:47;;;;;;;56.40;21.13;;;17.90;99.90;;;;;;1919015;73;25783;-90
2023/09/11 09:43:37;;;;;;;53.60;22.13;;;17.80;99.90;;;;;;1895508;75;25372;-90
2023/09/11 09:49:18;;;;;;;66.10;23.67;;;17.80;99.90;;;;;;1936533;72;27666;-90
2023/09/11 09:52:08;;;;;;;75.03;25.47;;;17.80;99.90;;;;;;1864314;73;25634;-90
2023/09/11 09:55:02;;;;;;;62.73;25.63;;;17.70;99.90;;;;;;1923402;74;25216;-91
2023/09/11 10:00:37;;;;;;;53.53;22.17;;;17.90;99.90;;;;;;1932146;72;27586;-90
2023/09/11 10:03:28;;;;;;;47.47;21.63;;;18.00;99.90;;;;;;1878552;76;25162;-91
2023/09/11 10:06:19;;;;;;;47.83;20.70;;;18.10;99.90;;;;;;1876373;76;25248;-90
2023/09/11 10:09:09;;;;;;;39.83;19.17;;;18.20;99.90;;;;;;1867143;76;25249;-90
2023/09/11 10:12:03;;;;;;;33.03;17.40;;;18.40;99.90;;;;;;1877238;76;25660;-88
2023/09/11 10:14:51;;;;;;;46.90;19.93;;;18.40;99.90;;;;;;1878836;75;25282;-90
2023/09/11 10:17:40;;;;;;;33.83;18.93;;;18.40;99.90;;;;;;1876646;76;25751;-90
2023/09/11 10:20:30;;;;;;;40.87;18.90;;;18.40;99.90;;;;;;1879817;76;25240;-90
2023/09/11 10:23:21;;;;;;;33.63;17.37;;;18.40;99.90;;;;;;1866253;76;25177;-90
2023/09/11 10:26:14;;;;;;;32.27;16.77;;;18.50;99.90;;;;;;1869972;76;25189;-90
2023/09/11 10:29:08;;;;;;;35.20;16.60;;;18.40;99.90;;;;;;1865718;76;25867;-90
2023/09/11 10:35:00;;;;;;;32.30;15.43;;;18.20;99.90;;;;;;1937804;72;27446;-90
2023/09/11 10:40:30;;;;;;;28.00;15.30;;;18.30;99.90;;;;;;1934023;72;27041;-89
2023/09/11 10:43:19;;;;;;;34.73;16.73;;;18.40;99.90;;;;;;1895960;75;25766;-89
2023/09/11 10:46:36;;;;;;;34.40;16.83;;;18.60;99.90;;;;;;1888885;75;25873;-89
2023/09/11 11:05:30;;;;;;;31.13;15.73;;;18.50;99.90;;;;;;1858452;75;26960;-90
2023/09/11 11:08:19;;;;;;;34.57;16.73;;;18.40;99.90;;;;;;1803378;79;25245;-90
2023/09/11 11:14:17;;;;;;;33.93;17.97;;;18.40;99.90;;;;;;1949899;71;27538;-90
2023/09/11 11:17:08;;;;;;;38.07;18.03;;;18.50;99.90;;;;;;1929899;72;25207;-90
2023/09/11 11:20:01;;;;;;;41.20;17.87;;;18.60;99.90;;;;;;1916869;73;25207;-90
2023/09/11 11:22:49;;;;;;;37.90;17.83;;;18.80;99.90;;;;;;1949210;72;25267;-90
2023/09/11 11:25:38;;;;;;;38.30;19.13;;;18.80;99.90;;;;;;1898066;74;25269;-90
2023/09/11 11:28:26;;;;;;;35.50;19.40;;;18.70;99.90;;;;;;1896098;75;25216;-91
2023/09/11 11:31:19;;;;;;;35.33;18.00;;;18.70;99.90;;;;;;1882078;75;25237;-90
2023/09/11 11:34:09;;;;;;;39.80;18.13;;;18.80;99.90;;;;;;1887485;75;25164;-89
2023/09/11 11:36:58;;;;;;;32.20;16.50;;;19.00;99.90;;;;;;1894841;74;25657;-91
2023/09/11 11:39:49;;;;;;;28.07;16.17;;;19.10;99.90;;;;;;1880716;75;25726;-90
2023/09/11 11:42:38;;;;;;;32.33;15.57;;;19.30;99.90;;;;;;1847669;77;25706;-90
2023/09/11 11:45:29;;;;;;;33.40;15.67;;;19.40;99.90;;;;;;1862944;76;25233;-90
2023/09/11 11:48:17;;;;;;;31.70;16.50;;;19.40;99.90;;;;;;1864427;76;25235;-91
2023/09/11 11:51:06;;;;;;;30.43;15.13;;;19.50;99.90;;;;;;1888479;75;25265;-90
2023/09/11 11:53:56;;;;;;;28.63;15.97;;;19.70;99.90;;;;;;1869906;76;25253;-90
2023/09/11 11:56:44;;;;;;;29.17;15.27;;;19.90;99.90;;;;;;1886633;75;25871;-91
2023/09/11 11:59:35;;;;;;;33.60;17.20;;;19.90;99.90;;;;;;1855869;77;25265;-91
2023/09/11 12:05:05;;;;;;;27.27;15.60;;;19.80;99.90;;;;;;1926960;72;26972;-90
2023/09/11 12:07:55;;;;;;;25.47;14.83;;;19.80;99.90;;;;;;1912961;74;25935;-90
2023/09/11 12:10:48;;;;;;;27.70;15.20;;;19.90;99.90;;;;;;1884978;75;25223;-90
2023/09/11 12:27:35;;;;;;;30.70;14.83;;;19.80;99.90;;;;;;1931450;73;26754;-91
2023/09/11 12:33:11;;;;;;;28.63;14.13;;;20.30;99.90;;;;;;1996131;71;26984;-90
2023/09/11 12:35:59;;;;;;;26.70;14.47;;;20.30;99.90;;;;;;1938782;73;25618;-90
2023/09/11 12:38:48;;;;;;;25.83;13.37;;;20.40;99.90;;;;;;1926208;73;25226;-90
2023/09/11 12:41:37;;;;;;;24.77;12.83;;;20.40;99.90;;;;;;1929468;73;26920;-90
2023/09/11 12:44:26;;;;;;;20.67;11.37;;;20.30;99.90;;;;;;1902760;73;25614;-90
2023/09/11 12:47:16;;;;;;;24.57;11.63;;;20.40;99.90;;;;;;1892366;73;25725;-90
2023/09/11 12:52:53;;;;;;;22.37;11.57;;;20.30;99.90;;;;;;1951234;72;26997;-89
2023/09/11 12:55:43;;;;;;;23.90;12.40;;;20.30;99.90;;;;;;1944273;73;25171;-89
2023/09/11 12:58:33;;;;;;;21.83;12.13;;;20.30;99.90;;;;;;1930724;73;25268;-91
2023/09/11 13:01:22;;;;;;;24.87;11.83;;;20.30;99.90;;;;;;1922195;73;25192;-90
2023/09/11 13:04:12;;;;;;;18.17;11.10;;;20.30;99.90;;;;;;1947029;73;25247;-91
2023/09/11 13:07:00;;;;;;;20.53;10.93;;;20.10;99.90;;;;;;1937647;72;25252;-91
2023/09/11 13:09:49;;;;;;;17.57;10.50;;;20.00;99.90;;;;;;1925267;73;25249;-91
2023/09/11 13:12:38;;;;;;;21.00;10.70;;;20.00;99.90;;;;;;1923951;73;25580;-91
2023/09/11 13:15:32;;;;;;;19.90;10.97;;;20.00;99.90;;;;;;1945683;73;25198;-91
2023/09/11 13:18:21;;;;;;;19.60;11.50;;;19.90;99.90;;;;;;1929473;73;25231;-91
2023/09/11 13:21:09;;;;;;;22.27;11.37;;;20.00;99.90;;;;;;1928172;73;25273;-91
2023/09/11 13:23:58;;;;;;;21.00;10.73;;;20.00;99.90;;;;;;1943117;73;25669;-90
2023/09/11 13:26:48;;;;;;;16.70;10.33;;;20.10;99.90;;;;;;1919492;73;25235;-91
2023/09/11 13:29:37;;;;;;;20.63;11.27;;;20.40;99.90;;;;;;1927036;73;25257;-91
2023/09/11 13:32:27;;;;;;;16.47;10.33;;;20.50;99.90;;;;;;1924257;72;25175;-91
2023/09/11 13:35:16;;;;;;;19.50;10.60;;;20.70;99.90;;;;;;1929687;73;25205;-90
2023/09/11 13:38:05;;;;;;;20.03;10.37;;;20.60;99.90;;;;;;1929957;73;25340;-91
2023/09/11 13:58:12;;;;;;;21.10;11.77;;;20.10;99.90;;;;;;1952566;72;26982;-90
2023/09/11 14:01:01;;;;;;;19.17;11.17;;;20.00;99.90;;;;;;1911305;73;25250;-90
2023/09/11 14:03:49;;;;;;;18.77;11.33;;;19.80;99.90;;;;;;1945606;73;25284;-90
2023/09/11 14:06:37;;;;;;;20.67;11.50;;;19.60;99.90;;;;;;1954609;72;25660;-92
2023/09/11 14:09:27;;;;;;;22.00;12.07;;;19.40;99.90;;;;;;1941727;73;25282;-90
2023/09/11 14:12:16;;;;;;;22.60;11.00;;;19.40;99.90;;;;;;1929676;73;25241;-89
2023/09/11 14:15:05;;;;;;;17.80;10.87;;;19.40;99.90;;;;;;1933164;73;25288;-89
2023/09/11 14:17:53;;;;;;;20.53;11.10;;;19.60;99.90;;;;;;1941142;73;25189;-89
2023/09/11 14:20:42;;;;;;;16.93;10.63;;;19.70;99.90;;;;;;1925425;73;25333;-89
2023/09/11 14:23:31;;;;;;;19.40;9.87;;;19.80;99.90;;;;;;1928029;73;25764;-89
2023/09/11 14:26:22;;;;;;;17.40;10.00;;;19.90;99.90;;;;;;1936288;73;25726;-89
2023/09/11 14:29:11;;;;;;;16.77;9.93;;;19.90;99.90;;;;;;1938927;73;25243;-89
2023/09/11 14:32:05;;;;;;;19.23;9.97;;;19.90;99.90;;;;;;1932367;73;25205;-89
2023/09/11 14:34:51;;;;;;;18.83;10.20;;;19.90;99.90;;;;;;1934515;73;25252;-89
2023/09/11 14:40:21;;;;;;;22.67;10.63;;;19.90;99.90;;;;;;1855592;75;27573;-90
2023/09/11 14:43:09;;;;;;;17.80;10.20;;;19.90;99.90;;;;;;1826326;78;25340;-90
2023/09/11 14:45:58;;;;;;;20.83;11.40;;;19.90;99.90;;;;;;1811149;78;25202;-91
2023/09/11 14:48:49;;;;;;;17.53;10.33;;;19.90;99.90;;;;;;1814961;78;25189;-90
2023/09/11 14:51:38;;;;;;;16.57;10.23;;;19.90;99.90;;;;;;1817618;78;25249;-90
2023/09/11 14:54:27;;;;;;;21.00;9.67;;;19.90;99.90;;;;;;1810278;78;25767;-91
2023/09/11 14:59:54;;;;;;;15.27;9.33;;;20.00;99.90;;;;;;1929770;72;27062;-90
2023/09/11 15:02:44;;;;;;;21.10;10.73;;;19.90;99.90;;;;;;1868517;75;25268;-90
2023/09/11 15:05:33;;;;;;;18.90;10.80;;;19.90;99.90;;;;;;1908463;73;25297;-90
2023/09/11 15:11:40;;;;;;;19.77;10.73;;;19.90;99.90;;;;;;1996976;71;26969;-90
2023/09/11 15:14:30;;;;;;;23.10;10.43;;;19.90;99.90;;;;;;2006689;70;25213;-89
2023/09/11 15:17:19;;;;;;;18.67;10.67;;;19.90;99.90;;;;;;2011684;70;25139;-90
2023/09/11 15:20:09;;;;;;;19.63;10.93;;;19.90;99.90;;;;;;2013864;70;25682;-90
2023/09/11 15:25:45;;;;;;;19.00;11.43;;;19.70;99.90;;;;;;1944332;72;27549;-90
2023/09/11 15:28:33;;;;;;;19.17;11.20;;;19.80;99.90;;;;;;1916405;74;25778;-90
2023/09/11 15:31:22;;;;;;;16.50;10.70;;;19.70;99.90;;;;;;1911596;74;25302;-90
2023/09/11 15:34:13;;;;;;;29.93;12.40;;;19.70;99.90;;;;;;1918849;72;25618;-90
2023/09/11 15:37:01;;;;;;;18.00;10.60;;;19.80;99.90;;;;;;1909196;74;25253;-90
2023/09/11 15:39:49;;;;;;;18.20;10.67;;;19.70;99.90;;;;;;1930888;73;25299;-90
2023/09/11 15:42:38;;;;;;;19.50;11.87;;;19.60;99.90;;;;;;1898673;74;25313;-90
2023/09/11 15:45:26;;;;;;;20.23;11.90;;;19.60;99.90;;;;;;1888591;74;25736;-90
2023/09/11 15:51:04;;;;;;;16.33;11.47;;;19.60;99.90;;;;;;1955942;72;26896;-90
2023/09/11 15:53:54;;;;;;;19.53;10.47;;;19.70;99.90;;;;;;1932986;72;25169;-90
2023/09/11 15:56:44;;;;;;;18.80;10.50;;;19.70;99.90;;;;;;1923456;72;25268;-90
2023/09/11 15:59:33;;;;;;;20.20;10.33;;;19.60;99.90;;;;;;1926483;72;25632;-90
2023/09/11 16:02:22;;;;;;;17.37;10.27;;;19.60;99.90;;;;;;1939089;73;25590;-90
2023/09/11 16:05:12;;;;;;;17.77;9.97;;;19.60;99.90;;;;;;1923750;72;25213;-90
2023/09/11 16:10:49;;;;;;;17.10;10.23;;;19.60;99.90;;;;;;1949694;72;27004;-90
2023/09/11 16:13:38;;;;;;;16.90;9.70;;;19.50;99.90;;;;;;1935377;72;25356;-91
2023/09/11 16:16:27;;;;;;;15.17;9.83;;;19.50;99.90;;;;;;1943160;73;25220;-90
2023/09/11 16:19:15;;;;;;;18.17;11.67;;;19.50;99.90;;;;;;1936900;73;25291;-91
2023/09/11 16:22:04;;;;;;;23.10;10.90;;;19.50;99.90;;;;;;1942270;73;25227;-90
2023/09/11 16:25:31;;;;;;;15.20;10.37;;;19.50;99.90;;;;;;1932650;73;25209;-91
2023/09/11 16:28:24;;;;;;;22.40;10.80;;;19.60;99.90;;;;;;1932598;73;25743;-91
2023/09/11 16:31:09;;;;;;;21.17;11.00;;;19.60;99.90;;;;;;1939111;72;25267;-90
2023/09/11 16:34:00;;;;;;;18.10;11.03;;;19.50;99.90;;;;;;1926306;73;25755;-91
2023/09/11 16:36:50;;;;;;;17.67;10.47;;;19.60;99.90;;;;;;1944492;72;26193;-90
2023/09/11 16:39:38;;;;;;;15.00;10.53;;;19.60;99.90;;;;;;1939695;72;25244;-91
2023/09/11 16:42:28;;;;;;;23.33;11.23;;;19.60;99.90;;;;;;1934442;73;25205;-91
2023/09/11 16:45:18;;;;;;;16.83;10.00;;;19.60;99.90;;;;;;1921369;73;25241;-89
2023/09/11 16:50:53;;;;;;;18.37;10.67;;;19.70;99.90;;;;;;1945389;72;26866;-91
2023/09/11 16:53:42;;;;;;;21.43;10.97;;;19.70;99.90;;;;;;1935562;73;25161;-90
2023/09/11 16:56:30;;;;;;;17.10;10.93;;;19.60;99.90;;;;;;1923777;73;25319;-91
2023/09/11 16:59:21;;;;;;;18.93;11.67;;;19.60;99.90;;;;;;1934561;72;25280;-91
2023/09/11 17:04:51;;;;;;;17.17;11.57;;;19.40;99.90;;;;;;1967934;71;27051;-91
2023/09/11 17:07:39;;;;;;;21.37;11.30;;;19.40;99.90;;;;;;1904244;74;25240;-90
2023/09/11 17:10:28;;;;;;;19.03;11.13;;;19.30;99.90;;;;;;1889765;75;25142;-90
2023/09/11 17:13:17;;;;;;;22.03;11.97;;;19.40;99.90;;;;;;1895002;74;25148;-91
2023/09/11 17:16:06;;;;;;;23.23;11.30;;;19.40;99.90;;;;;;1889030;74;25265;-90
2023/09/11 17:18:55;;;;;;;18.43;11.10;;;19.30;99.90;;;;;;1887056;74;25256;-90
2023/09/11 17:21:44;;;;;;;16.73;11.10;;;19.30;99.90;;;;;;1905961;74;25280;-90
2023/09/11 17:24:32;;;;;;;18.03;11.27;;;19.20;99.90;;;;;;1918295;74;25718;-91
2023/09/11 17:27:21;;;;;;;19.40;11.63;;;19.20;99.90;;;;;;1904794;74;25713;-90
2023/09/11 17:30:12;;;;;;;17.17;10.87;;;19.20;99.90;;;;;;1908123;75;25277;-91
2023/09/11 17:33:02;;;;;;;22.13;11.37;;;19.10;99.90;;;;;;1904647;74;25205;-90
2023/09/11 17:35:51;;;;;;;19.30;11.00;;;19.10;99.90;;;;;;1871521;75;25352;-91
2023/09/11 17:39:02;;;;;;;23.10;10.43;;;19.00;99.90;;;;;;1891814;74;25609;-91
2023/09/11 17:41:51;;;;;;;20.60;10.73;;;19.00;99.90;;;;;;1893538;74;25196;-91
2023/09/11 17:44:40;;;;;;;18.13;10.37;;;19.00;99.90;;;;;;1881288;75;25523;-91
2023/09/11 17:47:28;;;;;;;18.20;10.63;;;19.00;99.90;;;;;;1881022;75;25655;-91
2023/09/11 17:50:18;;;;;;;17.63;10.37;;;18.90;99.90;;;;;;1880823;74;25331;-91
2023/09/11 17:53:06;;;;;;;18.50;10.80;;;18.90;99.90;;;;;;1881028;75;25244;-91
2023/09/11 17:55:55;;;;;;;17.83;10.70;;;18.90;99.90;;;;;;1875174;74;25227;-91
2023/09/11 17:58:43;;;;;;;15.70;10.73;;;18.90;99.90;;;;;;1900484;75;25747;-91
2023/09/11 18:01:32;;;;;;;19.47;10.47;;;18.80;99.90;;;;;;1897487;75;25168;-90
2023/09/11 18:04:20;;;;;;;16.73;10.43;;;18.80;99.90;;;;;;1874811;74;25352;-90
2023/09/11 18:07:09;;;;;;;15.40;10.27;;;18.80;99.90;;;;;;1840413;77;25748;-90
2023/09/11 18:09:58;;;;;;;22.70;10.73;;;18.70;99.90;;;;;;1888897;75;25219;-91
2023/09/11 18:12:48;;;;;;;22.37;10.60;;;18.70;99.90;;;;;;1903499;74;25229;-90
2023/09/11 18:15:37;;;;;;;16.80;10.33;;;18.70;99.90;;;;;;1870937;75;25165;-91
2023/09/11 18:18:26;;;;;;;20.27;11.17;;;18.70;99.90;;;;;;1866598;76;25269;-91
2023/09/11 18:21:15;;;;;;;21.60;10.60;;;18.60;99.90;;;;;;1909192;75;25253;-91
2023/09/11 18:24:03;;;;;;;14.83;9.33;;;18.60;99.90;;;;;;1875290;75;25235;-91
2023/09/11 18:40:00;;;;;;;17.77;8.90;;;18.70;99.90;;;;;;1842603;76;27168;-89
2023/09/11 18:45:33;;;;;;;16.87;8.87;;;18.80;99.90;;;;;;2006034;69;26969;-90
2023/09/11 18:52:08;;;;;;;16.67;10.27;;;18.80;99.90;;;;;;1937965;71;27402;-90
2023/09/11 18:54:57;;;;;;;14.83;9.23;;;18.60;99.90;;;;;;1978643;71;25152;-90
2023/09/11 18:57:48;;;;;;;15.37;9.00;;;18.60;99.90;;;;;;1939548;72;25731;-90
2023/09/11 19:00:40;;;;;;;14.10;9.53;;;18.50;99.90;;;;;;1943548;73;25210;-90
2023/09/11 19:03:28;;;;;;;15.30;9.13;;;18.50;99.90;;;;;;1948966;72;25238;-90
2023/09/11 19:06:18;;;;;;;17.90;9.03;;;18.50;99.90;;;;;;1934379;73;25541;-90
2023/09/11 19:09:07;;;;;;;16.13;9.20;;;18.60;99.90;;;;;;1967669;72;25669;-90
2023/09/11 19:11:56;;;;;;;23.13;9.47;;;18.60;99.90;;;;;;1951871;71;25268;-90
2023/09/11 19:14:45;;;;;;;15.63;8.80;;;18.60;99.90;;;;;;1949456;72;25263;-90
2023/09/11 19:17:34;;;;;;;16.43;9.30;;;18.50;99.90;;;;;;1982311;71;25307;-90
2023/09/11 19:23:16;;;;;;;17.17;8.90;;;18.60;99.90;;;;;;1949137;72;27477;-90
2023/09/11 19:26:06;;;;;;;18.07;8.87;;;18.50;99.90;;;;;;1930894;73;25738;-90
2023/09/11 19:28:56;;;;;;;15.27;8.07;;;18.60;99.90;;;;;;1929405;73;25212;-90
2023/09/11 19:31:44;;;;;;;23.53;8.13;;;18.60;99.90;;;;;;1933780;73;26160;-90
2023/09/11 19:37:27;;;;;;;17.03;7.63;;;18.50;99.90;;;;;;1903459;74;27194;-91
2023/09/11 19:40:16;;;;;;;15.33;8.17;;;18.50;99.90;;;;;;1869304;76;25274;-91
2023/09/11 19:43:05;;;;;;;15.60;7.73;;;18.60;99.90;;;;;;1899253;74;25401;-91
2023/09/11 19:45:55;;;;;;;16.93;7.90;;;18.60;99.90;;;;;;1894371;75;25313;-91
2023/09/11 19:52:04;;;;;;;14.97;8.23;;;18.50;99.90;;;;;;1973508;71;27200;-90
2023/09/11 19:54:53;;;;;;;15.00;7.63;;;18.50;99.90;;;;;;2007928;70;25201;-90
2023/09/11 19:57:41;;;;;;;15.53;7.47;;;18.50;99.90;;;;;;2024745;70;25267;-90
2023/09/11 20:03:24;;;;;;;17.03;7.20;;;18.40;99.90;;;;;;1976261;71;26939;-90
2023/09/11 20:06:13;;;;;;;17.83;6.97;;;18.40;99.90;;;;;;1939573;72;25233;-90
2023/09/11 20:09:02;;;;;;;19.17;7.00;;;18.30;99.90;;;;;;1927521;72;25161;-90
2023/09/11 20:11:51;;;;;;;16.00;6.97;;;18.40;99.90;;;;;;1939202;72;25602;-90
2023/09/11 20:18:28;;;;;;;18.50;6.40;;;18.50;99.90;;;;;;1986560;71;26393;-91
2023/09/11 20:21:16;;;;;;;12.60;6.00;;;18.60;99.90;;;;;;2007338;70;25139;-90
2023/09/11 20:24:06;;;;;;;10.43;5.80;;;18.60;99.90;;;;;;2001269;70;25749;-90
2023/09/11 20:26:55;;;;;;;11.27;6.37;;;18.50;99.90;;;;;;2011372;70;25193;-90
2023/09/11 20:29:43;;;;;;;13.57;6.70;;;18.40;99.90;;;;;;2005754;70;25216;-90
2023/09/11 20:47:48;;;;;;;18.37;6.50;;;18.40;99.90;;;;;;1993802;71;26310;-90
2023/09/11 20:50:38;;;;;;;17.03;7.47;;;18.30;99.90;;;;;;2019640;70;25658;-90
2023/09/11 21:09:29;;;;;;;13.10;6.73;;;18.20;99.90;;;;;;1947338;71;27690;-90
2023/09/11 21:12:18;;;;;;;13.43;6.40;;;18.20;99.90;;;;;;1914189;73;25227;-90
2023/09/11 21:18:00;;;;;;;13.73;7.20;;;18.20;99.90;;;;;;1943469;72;27447;-90
2023/09/11 21:20:48;;;;;;;16.10;6.97;;;18.20;99.90;;;;;;1938780;72;25251;-90
2023/09/11 21:23:37;;;;;;;17.23;6.73;;;18.20;99.90;;;;;;1935153;72;25259;-90
2023/09/11 21:26:26;;;;;;;13.30;6.40;;;18.10;99.90;;;;;;1947677;73;25194;-90
2023/09/11 21:29:15;;;;;;;13.93;7.37;;;18.10;99.90;;;;;;1938716;72;25666;-90
2023/09/11 21:32:09;;;;;;;18.00;6.97;;;18.10;99.90;;;;;;1932089;72;25256;-90
2023/09/11 21:34:57;;;;;;;11.77;6.90;;;18.10;99.90;;;;;;1912633;72;25213;-90
2023/09/11 21:37:46;;;;;;;14.30;7.23;;;18.10;99.90;;;;;;1946903;72;25242;-90
2023/09/11 21:40:36;;;;;;;14.13;7.03;;;18.10;99.90;;;;;;1939979;72;25183;-90
2023/09/11 21:43:24;;;;;;;16.87;7.70;;;18.10;99.90;;;;;;1915307;73;25258;-90
2023/09/11 21:49:10;;;;;;;14.93;7.30;;;18.10;99.90;;;;;;1941477;72;27104;-90
2023/09/11 21:52:00;;;;;;;13.97;6.97;;;18.10;99.90;;;;;;1965361;72;25329;-90
2023/09/11 21:54:50;;;;;;;14.23;6.93;;;18.10;99.90;;;;;;1965186;72;25191;-90
2023/09/11 21:57:40;;;;;;;16.43;7.80;;;18.10;99.90;;;;;;1963239;72;25326;-90
2023/09/11 22:14:28;;;;;;;12.60;7.50;;;18.10;99.90;;;;;;1926527;73;26435;-91
2023/09/11 22:20:12;;;;;;;19.50;8.37;;;18.10;99.90;;;;;;1945895;72;26889;-90
2023/09/11 22:23:00;;;;;;;13.67;8.20;;;18.10;99.90;;;;;;1945527;73;25263;-90
2023/09/11 22:29:06;;;;;;;24.20;8.53;;;18.00;99.90;;;;;;1976405;71;26107;-90
2023/09/11 22:31:55;;;;;;;18.43;8.20;;;18.00;99.90;;;;;;2009897;70;25258;-89
2023/09/11 22:34:44;;;;;;;14.43;8.47;;;18.00;99.90;;;;;;2010839;70;25834;-90
2023/09/11 22:37:32;;;;;;;14.33;8.30;;;17.90;99.90;;;;;;2011026;70;25638;-90
2023/09/11 22:43:04;;;;;;;20.87;8.50;;;17.80;99.90;;;;;;1904177;72;27008;-89
2023/09/11 22:48:35;;;;;;;19.13;8.40;;;17.90;99.90;;;;;;1857613;75;27206;-89
2023/09/11 23:07:37;;;;;;;15.67;9.40;;;18.00;99.90;;;;;;1940997;72;27067;-90
2023/09/11 23:10:27;;;;;;;20.30;9.13;;;18.00;99.90;;;;;;1907192;75;25249;-90
2023/09/11 23:13:17;;;;;;;19.67;10.30;;;18.00;99.90;;;;;;1909003;75;25307;-90